TimeCST,TemperatureF,Dew PointF,Humidity,Sea Level PressureIn,VisibilityMPH,Wind Direction,Wind SpeedMPH,Gust SpeedMPH,PrecipitationIn,Events,Conditions,WindDirDegrees,DateUTC
12:53 AM,48.0,36.0,63,29.93,10.0,South,4.6,-,N/A,,Clear,170,2013-02-18 06:53:00
1:53 AM,54.0,39.0,57,29.92,10.0,South,5.8,-,N/A,,Clear,190,2013-02-18 07:53:00
2:53 AM,54.0,39.9,59,29.92,10.0,South,9.2,-,N/A,,Clear,190,2013-02-18 08:53:00
3:53 AM,55.0,41.0,59,29.92,10.0,Variable,4.6,-,N/A,,Mostly Cloudy,0,2013-02-18 09:53:00
4:53 AM,55.0,43.0,64,29.91,10.0,South,6.9,-,N/A,,Overcast,180,2013-02-18 10:53:00
5:53 AM,55.0,44.1,67,29.89,10.0,South,6.9,-,N/A,,Overcast,180,2013-02-18 11:53:00
6:53 AM,55.9,45.0,67,29.88,10.0,South,6.9,-,N/A,,Overcast,170,2013-02-18 12:53:00
8:53 AM,54.0,45.0,72,29.84,10.0,SSE,8.1,18.4,N/A,,Overcast,160,2013-02-18 14:53:00
9:53 AM,55.0,46.0,72,29.83,10.0,South,5.8,-,N/A,,Overcast,170,2013-02-18 15:53:00
10:53 AM,55.9,48.0,75,29.82,10.0,South,4.6,-,N/A,,Overcast,170,2013-02-18 16:53:00
11:53 AM,57.0,48.9,74,29.79,10.0,SSW,5.8,-,N/A,,Overcast,200,2013-02-18 17:53:00
12:53 PM,57.9,50.0,75,29.74,10.0,Variable,4.6,-,N/A,,Overcast,0,2013-02-18 18:53:00
1:53 PM,62.1,51.1,67,29.70,10.0,SSW,9.2,19.6,N/A,,Overcast,200,2013-02-18 19:53:00
2:53 PM,61.0,52.0,72,29.67,10.0,South,9.2,17.3,N/A,,Overcast,190,2013-02-18 20:53:00
3:37 PM,60.8,53.6,77,29.66,10.0,South,9.2,18.4,N/A,,Scattered Clouds,180,2013-02-18 21:37:00
3:53 PM,62.1,53.1,72,29.66,10.0,SSW,8.1,-,N/A,,Mostly Cloudy,210,2013-02-18 21:53:00
3:58 PM,62.6,53.6,72,29.69,10.0,SW,6.9,-,N/A,Thunderstorm,Mostly Cloudy,220,2013-02-18 21:58:00
4:14 PM,60.8,53.6,77,29.69,5.0,SW,9.2,19.6,0.02,Rain-Thunderstorm,Rain,230,2013-02-18 22:14:00
4:33 PM,59.0,51.8,77,29.69,10.0,WSW,6.9,-,0.04,Rain-Thunderstorm,Light Rain,250,2013-02-18 22:33:00
4:53 PM,59.0,54.0,83,29.69,10.0,West,3.5,-,0.04,,Mostly Cloudy,280,2013-02-18 22:53:00
5:53 PM,57.9,48.9,72,29.73,10.0,West,10.4,20.7,N/A,,Clear,280,2013-02-18 23:53:00
6:53 PM,55.0,39.9,57,29.81,10.0,WNW,11.5,23.0,N/A,,Clear,300,2013-02-19 00:53:00
7:53 PM,53.1,37.0,55,29.88,10.0,NW,13.8,20.7,N/A,,Clear,310,2013-02-19 01:53:00
8:53 PM,51.1,36.0,56,29.92,10.0,WNW,8.1,-,N/A,,Clear,300,2013-02-19 02:53:00
9:53 PM,48.9,36.0,61,29.97,10.0,WNW,9.2,-,N/A,,Clear,290,2013-02-19 03:53:00
11:53 PM,45.0,32.0,60,30.04,10.0,NW,10.4,-,N/A,,Clear,310,2013-02-19 05:53:00